createdAt,value
2022-08-25T00:02:00.694Z,92205.22
2022-08-25T00:05:06.516Z,92207.16
2022-08-25T00:08:10.263Z,92195.41
2022-08-25T00:11:17.203Z,92198.25
2022-08-25T00:14:31.868Z,92193.59
2022-08-25T00:17:35.718Z,92192.13
2022-08-25T00:20:38.827Z,92193.47
2022-08-25T00:23:47.139Z,92196.50
2022-08-25T00:26:55.766Z,92196.19
2022-08-25T00:29:59.029Z,92193.78
2022-08-25T00:33:02.085Z,92195.78
2022-08-25T00:36:05.614Z,92190.06
2022-08-25T00:39:10.316Z,92188.28
2022-08-25T00:42:16.088Z,92186.47
2022-08-25T00:45:19.528Z,92181.09
2022-08-25T00:48:22.496Z,92183.03
2022-08-25T00:51:52.239Z,92181.81
2022-08-25T00:55:14.099Z,92178.50
2022-08-25T00:58:20.964Z,92189.09
2022-08-25T01:01:24.444Z,92187.47
2022-08-25T01:04:28.270Z,92200.34
2022-08-25T01:07:31.339Z,92198.47
2022-08-25T01:10:37.722Z,92196.03
2022-08-25T01:13:45.859Z,92196.19
2022-08-25T01:16:50.964Z,92184.19
2022-08-25T01:19:56.055Z,92186.00
2022-08-25T01:23:00.058Z,92178.16
2022-08-25T01:26:09.514Z,92180.13
2022-08-25T01:29:27.993Z,92182.53
2022-08-25T01:32:35.520Z,92179.66
2022-08-25T01:35:40.243Z,92180.66
2022-08-25T01:38:42.973Z,92172.50
2022-08-25T01:42:10.143Z,92164.38
2022-08-25T01:45:13.804Z,92161.19
2022-08-25T01:48:17.593Z,92156.38
2022-08-25T01:51:24.428Z,92153.09
2022-08-25T01:54:27.485Z,92148.72
2022-08-25T01:57:32.102Z,92148.13
2022-08-25T02:00:34.816Z,92155.66
2022-08-25T02:03:41.186Z,92149.69
2022-08-25T02:06:45.769Z,92146.38
2022-08-25T02:09:48.893Z,92145.03
2022-08-25T02:12:54.310Z,92145.41
2022-08-25T02:15:59.254Z,92132.59
2022-08-25T02:19:02.453Z,92134.59
2022-08-25T02:22:06.919Z,92137.94
2022-08-25T02:25:11.164Z,92132.97
2022-08-25T02:28:14.623Z,92135.66
2022-08-25T02:31:21.348Z,92135.31
2022-08-25T02:34:25.306Z,92124.63
2022-08-25T02:37:28.348Z,92135.38
2022-08-25T02:40:31.517Z,92130.16
2022-08-25T02:43:34.606Z,92126.66
2022-08-25T02:46:38.572Z,92121.53
2022-08-25T02:49:41.579Z,92125.28
2022-08-25T02:52:45.576Z,92126.94
2022-08-25T02:55:48.970Z,92127.50
2022-08-25T02:58:52.310Z,92119.97
2022-08-25T03:01:55.358Z,92112.34
2022-08-25T03:04:58.727Z,92114.25
2022-08-25T03:08:01.942Z,92108.91
2022-08-25T03:11:05.728Z,92104.88
2022-08-25T03:14:11.593Z,92089.19
2022-08-25T03:17:15.350Z,92088.47
2022-08-25T03:20:19.259Z,92086.69
2022-08-25T03:23:22.466Z,92086.34
2022-08-25T03:26:44.007Z,92090.19
2022-08-25T03:29:47.645Z,92095.38
2022-08-25T03:32:50.788Z,92100.66
2022-08-25T03:35:54.328Z,92112.97
2022-08-25T03:38:58.397Z,92108.09
2022-08-25T03:42:05.144Z,92110.03
2022-08-25T03:45:09.022Z,92101.91
2022-08-25T03:48:12.550Z,92096.38
2022-08-25T03:51:27.672Z,92108.47
2022-08-25T03:54:30.443Z,92100.53
2022-08-25T03:57:33.473Z,92088.13
2022-08-25T04:00:36.600Z,92094.59
2022-08-25T04:03:40.109Z,92084.81
2022-08-25T04:06:45.073Z,92074.13
2022-08-25T04:09:48.418Z,92086.00
2022-08-25T04:12:51.568Z,92081.34
2022-08-25T04:15:54.636Z,92077.66
2022-08-25T04:18:59.850Z,92075.28
2022-08-25T04:22:02.929Z,92077.75
2022-08-25T04:25:07.662Z,92051.59
2022-08-25T04:28:11.632Z,92047.03
2022-08-25T04:31:17.113Z,92061.91
2022-08-25T04:34:30.793Z,92054.81
2022-08-25T04:37:34.467Z,92052.09
2022-08-25T04:40:37.848Z,92045.53
2022-08-25T04:43:42.258Z,92042.22
2022-08-25T04:46:45.511Z,92037.63
2022-08-25T04:49:48.692Z,92043.19
2022-08-25T04:52:51.687Z,92045.03
2022-08-25T04:55:54.782Z,92038.72
2022-08-25T04:58:57.887Z,92036.53
2022-08-25T05:02:07.096Z,92041.09
2022-08-25T05:05:10.092Z,92035.72
2022-08-25T05:08:13.161Z,92039.81
2022-08-25T05:11:18.663Z,92033.91
2022-08-25T05:14:26.223Z,92038.66
2022-08-25T05:17:29.714Z,92033.19
2022-08-25T05:20:32.931Z,92032.75
2022-08-25T05:23:36.865Z,92027.44
2022-08-25T05:26:40.310Z,92039.97
2022-08-25T05:29:43.338Z,92036.34
2022-08-25T05:32:46.614Z,92042.59
2022-08-25T05:35:53.931Z,92035.06
2022-08-25T05:39:00.591Z,92034.22
2022-08-25T05:42:03.814Z,92034.84
2022-08-25T05:45:08.551Z,92029.34
2022-08-25T05:48:12.106Z,92022.72
2022-08-25T05:51:16.213Z,92028.84
2022-08-25T05:54:19.437Z,92012.72
2022-08-25T05:57:22.507Z,92007.34
2022-08-25T06:00:25.602Z,91999.31
2022-08-25T06:03:28.677Z,91999.13
2022-08-25T06:06:31.726Z,91997.16
2022-08-25T06:09:34.827Z,91984.22
2022-08-25T06:12:38.884Z,91995.59
2022-08-25T06:15:42.431Z,91991.88
2022-08-25T06:18:45.628Z,91988.53
2022-08-25T06:21:48.697Z,91987.47
2022-08-25T06:24:51.722Z,91990.31
2022-08-25T06:27:56.065Z,91987.84
2022-08-25T06:31:00.981Z,91982.16
2022-08-25T06:34:04.201Z,91981.09
2022-08-25T06:37:07.427Z,91976.38
2022-08-25T06:40:12.111Z,91965.34
2022-08-25T06:43:14.918Z,91968.72
2022-08-25T06:46:22.224Z,91967.41
2022-08-25T06:49:38.668Z,91969.25
2022-08-25T06:52:41.704Z,91962.84
2022-08-25T06:55:44.936Z,91969.75
2022-08-25T06:58:48.838Z,91973.16
2022-08-25T07:01:52.151Z,91969.09
2022-08-25T07:04:55.985Z,91965.06
2022-08-25T07:07:59.031Z,91971.44
2022-08-25T07:11:15.914Z,91968.78
2022-08-25T07:14:20.471Z,91969.44
2022-08-25T07:17:24.357Z,91966.53
2022-08-25T07:20:28.113Z,91969.44
2022-08-25T07:23:31.724Z,91965.81
2022-08-25T07:26:38.915Z,91960.50
2022-08-25T07:29:42.846Z,91954.66
2022-08-25T07:32:46.194Z,91954.84
2022-08-25T07:35:49.323Z,91949.28
2022-08-25T07:38:54.618Z,91960.44
2022-08-25T07:41:58.626Z,91949.44
2022-08-25T07:45:01.888Z,91951.88
2022-08-25T07:48:09.857Z,91951.25
2022-08-25T07:51:18.386Z,91965.75
2022-08-25T07:54:21.780Z,91968.56
2022-08-25T07:57:37.263Z,91968.50
2022-08-25T08:00:42.503Z,91970.31
2022-08-25T08:03:50.938Z,91970.53
2022-08-25T08:06:54.359Z,91969.03
2022-08-25T08:10:25.683Z,91979.41
2022-08-25T08:13:20.973Z,91975.16
2022-08-25T08:16:26.810Z,91979.41
2022-08-25T08:19:29.932Z,91980.75
2022-08-25T08:22:33.575Z,91985.00
2022-08-25T08:25:36.654Z,91991.63
2022-08-25T08:28:39.677Z,91983.84
2022-08-25T08:31:48.316Z,91990.78
2022-08-25T08:34:51.848Z,91988.88
2022-08-25T08:37:54.981Z,91986.16
2022-08-25T08:41:23.001Z,91991.06
2022-08-25T08:44:34.697Z,91993.78
2022-08-25T08:47:53.462Z,91995.41
2022-08-25T08:51:49.597Z,92000.84
2022-08-25T08:55:01.455Z,92013.06
2022-08-25T08:58:31.190Z,92020.06
2022-08-25T09:02:15.897Z,92015.72
2022-08-25T09:05:53.468Z,92022.84
2022-08-25T09:08:59.967Z,92024.84
2022-08-25T09:12:27.610Z,92023.19
2022-08-25T09:16:34.052Z,92033.41
2022-08-25T09:19:37.509Z,92037.56
2022-08-25T09:22:50.997Z,92038.56
2022-08-25T09:26:29.056Z,92049.06
2022-08-25T09:30:05.247Z,92046.00
2022-08-25T09:33:09.308Z,92056.19
2022-08-25T09:36:12.596Z,92038.03
2022-08-25T09:39:16.133Z,92044.81
2022-08-25T09:42:23.811Z,92052.25
2022-08-25T09:45:44.043Z,92062.00
2022-08-25T09:49:05.327Z,92075.13
2022-08-25T09:52:19.866Z,92108.72
2022-08-25T09:55:32.477Z,92113.31
2022-08-25T09:58:35.970Z,92131.28
2022-08-25T10:01:50.416Z,92143.50
2022-08-25T10:04:53.926Z,92153.94
2022-08-25T10:08:00.066Z,92151.00
2022-08-25T10:11:15.905Z,92168.59
2022-08-25T10:14:44.588Z,92173.38
2022-08-25T10:17:48.135Z,92175.66
2022-08-25T10:21:13.982Z,92174.28
2022-08-25T10:24:17.354Z,92179.78
2022-08-25T10:27:41.667Z,92186.66
2022-08-25T10:31:21.089Z,92202.09
2022-08-25T10:34:51.743Z,92203.28
2022-08-25T10:38:21.538Z,92202.28
2022-08-25T10:41:39.259Z,92192.09
2022-08-25T10:45:25.083Z,92201.50
2022-08-25T10:48:58.930Z,92196.88
2022-08-25T10:52:08.118Z,92203.72
2022-08-25T10:55:30.284Z,92205.22
2022-08-25T10:58:48.030Z,92212.72
2022-08-25T11:02:12.599Z,92210.56
2022-08-25T11:05:40.824Z,92217.75
2022-08-25T11:09:01.262Z,92220.22
2022-08-25T11:12:40.506Z,92220.09
2022-08-25T11:16:19.220Z,92229.66
2022-08-25T11:19:32.766Z,92226.81
2022-08-25T11:22:46.682Z,92239.66
2022-08-25T11:25:58.239Z,92248.00
2022-08-25T11:29:05.134Z,92252.34
2022-08-25T11:32:14.997Z,92261.22
2022-08-25T11:35:26.859Z,92267.91
2022-08-25T11:38:48.987Z,92269.38
2022-08-25T11:42:14.756Z,92275.50
2022-08-25T11:45:32.659Z,92280.88
2022-08-25T11:48:48.066Z,92285.84
2022-08-25T11:51:52.622Z,92282.94
2022-08-25T11:54:56.383Z,92283.31
2022-08-25T11:58:32.821Z,92293.34
2022-08-25T12:01:43.807Z,92296.19
2022-08-25T12:04:47.542Z,92298.31
2022-08-25T12:08:14.024Z,92316.81
2022-08-25T12:11:38.882Z,92307.78
2022-08-25T12:14:47.433Z,92315.09
2022-08-25T12:18:23.854Z,92317.13
2022-08-25T12:21:33.154Z,92317.34
2022-08-25T12:24:47.768Z,92318.84
2022-08-25T12:28:09.094Z,92323.59
2022-08-25T12:31:30.638Z,92320.34
2022-08-25T12:34:41.809Z,92321.00
2022-08-25T12:38:02.701Z,92321.69
2022-08-25T12:41:12.980Z,92326.94
2022-08-25T12:44:36.634Z,92334.81
2022-08-25T12:47:44.321Z,92340.00
2022-08-25T12:50:50.926Z,92328.75
2022-08-25T12:54:01.995Z,92331.88
2022-08-25T12:57:32.821Z,92342.34
2022-08-25T13:00:52.660Z,92344.31
2022-08-25T13:04:27.819Z,92339.84
2022-08-25T13:08:00.983Z,92347.94
2022-08-25T13:11:14.264Z,92346.66
2022-08-25T13:14:39.769Z,92350.03
2022-08-25T13:17:42.514Z,92348.03
2022-08-25T13:20:49.667Z,92347.59
2022-08-25T13:24:04.836Z,92349.03
2022-08-25T13:27:22.723Z,92351.72
2022-08-25T13:30:33.497Z,92351.75
2022-08-25T13:33:37.692Z,92349.75
2022-08-25T13:37:07.332Z,92357.03
2022-08-25T13:40:13.076Z,92350.56
2022-08-25T13:43:17.135Z,92354.69
2022-08-25T13:46:22.335Z,92351.44
2022-08-25T13:49:28.452Z,92354.84
2022-08-25T13:52:31.932Z,92355.59
2022-08-25T13:55:38.296Z,92354.41
2022-08-25T13:58:55.140Z,92360.44
2022-08-25T14:02:01.056Z,92359.41
2022-08-25T14:05:04.456Z,92359.00
2022-08-25T14:08:31.763Z,92361.06
2022-08-25T14:11:55.909Z,92364.53
2022-08-25T14:15:11.389Z,92358.16
2022-08-25T14:18:31.403Z,92363.53
2022-08-25T14:21:36.607Z,92366.97
2022-08-25T14:24:44.510Z,92363.06
2022-08-25T14:28:06.897Z,92368.28
2022-08-25T14:31:14.916Z,92367.00
2022-08-25T14:34:22.136Z,92363.72
2022-08-25T14:37:27.230Z,92374.22
2022-08-25T14:40:34.225Z,92378.19
2022-08-25T14:43:37.950Z,92371.75
2022-08-25T14:46:50.987Z,92374.47
2022-08-25T14:49:54.299Z,92377.75
2022-08-25T14:52:59.685Z,92385.00
2022-08-25T14:56:06.940Z,92380.44
2022-08-25T14:59:14.040Z,92384.47
2022-08-25T15:02:21.098Z,92393.72
2022-08-25T15:05:28.502Z,92389.88
2022-08-25T15:08:50.094Z,92386.69
2022-08-25T15:11:55.834Z,92395.91
2022-08-25T15:14:59.008Z,92406.44
2022-08-25T15:18:02.208Z,92405.22
2022-08-25T15:21:05.456Z,92406.63
2022-08-25T15:24:10.830Z,92406.78
2022-08-25T15:27:15.807Z,92408.78
2022-08-25T15:30:20.972Z,92408.16
2022-08-25T15:33:34.106Z,92410.13
2022-08-25T15:36:37.511Z,92416.06
2022-08-25T15:39:44.565Z,92416.81
2022-08-25T15:42:47.904Z,92420.78
2022-08-25T15:45:51.280Z,92416.88
2022-08-25T15:51:59.013Z,92423.50
2022-08-25T15:55:02.375Z,92424.81
2022-08-25T15:58:05.727Z,92422.91
2022-08-25T16:01:24.911Z,92430.81
2022-08-25T16:04:29.918Z,92424.31
2022-08-25T16:07:33.159Z,92428.91
2022-08-25T16:10:41.686Z,92432.13
2022-08-25T16:13:44.880Z,92430.84
2022-08-25T16:16:47.944Z,92434.75
2022-08-25T16:19:50.918Z,92438.66
2022-08-25T16:22:54.005Z,92433.47
2022-08-25T16:25:57.349Z,92442.06
2022-08-25T16:29:02.548Z,92444.75
2022-08-25T16:32:11.397Z,92447.44
2022-08-25T16:35:16.967Z,92453.38
2022-08-25T16:38:20.084Z,92446.84
2022-08-25T16:41:26.559Z,92449.56
2022-08-25T16:44:29.879Z,92447.03
2022-08-25T16:47:38.451Z,92452.94
2022-08-25T16:50:41.534Z,92449.09
2022-08-25T16:54:03.065Z,92447.88
2022-08-25T16:57:06.162Z,92450.53
2022-08-25T17:00:13.561Z,92450.59
2022-08-25T17:03:16.556Z,92447.38
2022-08-25T17:06:20.046Z,92451.31
2022-08-25T17:09:24.265Z,92446.13
2022-08-25T17:12:28.211Z,92451.38
2022-08-25T17:15:31.585Z,92461.84
2022-08-25T17:18:34.768Z,92454.66
2022-08-25T17:21:38.997Z,92455.31
2022-08-25T17:24:59.313Z,92445.56
2022-08-25T17:28:05.933Z,92454.75
2022-08-25T17:31:10.258Z,92452.81
2022-08-25T17:34:16.425Z,92448.28
2022-08-25T17:37:19.904Z,92454.19
2022-08-25T17:40:23.792Z,92467.22
2022-08-25T17:43:32.122Z,92465.25
2022-08-25T17:46:35.605Z,92465.25
2022-08-25T17:49:38.932Z,92471.81
2022-08-25T17:52:42.250Z,92475.06
2022-08-25T17:55:46.281Z,92483.53
2022-08-25T17:58:51.692Z,92486.78
2022-08-25T18:01:55.726Z,92489.41
2022-08-25T18:04:58.798Z,92487.50
2022-08-25T18:08:01.902Z,92488.16
2022-08-25T18:11:08.443Z,92488.81
2022-08-25T18:14:12.137Z,92494.09
2022-08-25T18:17:15.184Z,92493.44
2022-08-25T18:20:25.347Z,92494.13
2022-08-25T18:23:30.158Z,92507.22
2022-08-25T18:26:33.708Z,92516.34
2022-08-25T18:29:36.952Z,92515.72
2022-08-25T18:32:40.127Z,92519.00
2022-08-25T18:35:43.543Z,92510.53
2022-08-25T18:39:05.109Z,92514.44
2022-08-25T18:42:08.370Z,92522.25
2022-08-25T18:45:12.463Z,92526.19
2022-08-25T18:48:17.608Z,92533.34
2022-08-25T18:51:23.435Z,92532.69
2022-08-25T18:54:26.603Z,92534.66
2022-08-25T18:57:29.705Z,92540.53
2022-08-25T19:00:33.347Z,92543.78
2022-08-25T19:03:36.397Z,92549.00
2022-08-25T19:06:39.474Z,92542.47
2022-08-25T19:09:47.019Z,92544.44
2022-08-25T19:12:54.776Z,92541.78
2022-08-25T19:16:00.484Z,92545.72
2022-08-25T19:19:06.874Z,92546.31
2022-08-25T19:22:38.023Z,92542.38
2022-08-25T19:25:34.744Z,92552.78
2022-08-25T19:28:37.975Z,92553.41
2022-08-25T19:31:49.544Z,92559.31
2022-08-25T19:34:55.543Z,92562.56
2022-08-25T19:38:00.569Z,92566.47
2022-08-25T19:41:10.427Z,92563.22
2022-08-25T19:44:18.362Z,92568.50
2022-08-25T19:47:21.612Z,92562.66
2022-08-25T19:50:24.781Z,92564.00
2022-08-25T19:53:27.780Z,92567.91
2022-08-25T19:56:31.623Z,92571.16
2022-08-25T19:59:43.224Z,92572.47
2022-08-25T20:02:47.997Z,92577.03
2022-08-25T20:05:52.461Z,92583.56
2022-08-25T20:08:58.951Z,92586.81
2022-08-25T20:12:03.706Z,92580.28
2022-08-25T20:15:10.328Z,92582.19
2022-08-25T20:18:13.347Z,92577.00
2022-08-25T20:21:16.387Z,92578.31
2022-08-25T20:24:37.579Z,92577.00
2022-08-25T20:27:46.042Z,92586.75
2022-08-25T20:30:49.121Z,92590.03
2022-08-25T20:33:52.201Z,92583.50
2022-08-25T20:36:55.841Z,92590.69
2022-08-25T20:39:59.366Z,92593.97
2022-08-25T20:43:04.160Z,92589.41
2022-08-25T20:46:08.755Z,92593.97
2022-08-25T20:49:11.789Z,92606.38
2022-08-25T20:52:15.493Z,92610.91
2022-08-25T20:55:19.234Z,92607.00
2022-08-25T20:58:22.302Z,92616.72
2022-08-25T21:01:38.241Z,92619.31
2022-08-25T21:04:49.038Z,92617.31
2022-08-25T21:07:53.515Z,92621.19
2022-08-25T21:10:56.479Z,92622.47
2022-08-25T21:13:59.690Z,92617.22
2022-08-25T21:17:02.932Z,92613.31
2022-08-25T21:20:09.291Z,92624.41
2022-08-25T21:23:12.604Z,92623.81
2022-08-25T21:26:17.777Z,92622.53
2022-08-25T21:29:23.088Z,92623.19
2022-08-25T21:32:27.416Z,92636.28
2022-08-25T21:35:31.645Z,92635.63
2022-08-25T21:38:35.136Z,92636.28
2022-08-25T21:41:41.894Z,92646.72
2022-08-25T21:44:45.437Z,92646.72
2022-08-25T21:47:48.479Z,92646.75
2022-08-25T21:50:51.534Z,92649.38
2022-08-25T21:54:09.513Z,92655.25
2022-08-25T21:57:13.369Z,92656.53
2022-08-25T22:00:16.734Z,92665.69
2022-08-25T22:03:19.756Z,92669.59
2022-08-25T22:06:23.769Z,92674.78
2022-08-25T22:09:28.521Z,92660.34
2022-08-25T22:12:31.620Z,92677.25
2022-08-25T22:15:34.787Z,92671.94
2022-08-25T22:18:37.999Z,92677.03
2022-08-25T22:21:44.120Z,92680.16
2022-08-25T22:24:47.222Z,92682.00
2022-08-25T22:27:56.347Z,92682.19
2022-08-25T22:31:04.030Z,92690.13
2022-08-25T22:34:07.230Z,92691.47
2022-08-25T22:37:10.302Z,92681.97
2022-08-25T22:40:14.426Z,92687.38
2022-08-25T22:43:18.063Z,92684.47
2022-08-25T22:46:22.699Z,92697.47
2022-08-25T22:49:29.671Z,92687.81
2022-08-25T22:52:34.739Z,92696.59
2022-08-25T22:55:43.211Z,92710.84
2022-08-25T22:58:51.798Z,92710.09
2022-08-25T23:01:55.888Z,92711.66
2022-08-25T23:05:00.962Z,92706.63
2022-08-25T23:08:04.449Z,92715.84
2022-08-25T23:11:10.444Z,92711.13
2022-08-25T23:14:13.952Z,92705.69
2022-08-25T23:17:17.111Z,92715.66
2022-08-25T23:20:45.255Z,92716.63
2022-08-25T23:23:49.097Z,92715.88
2022-08-25T23:26:52.157Z,92723.06
2022-08-25T23:29:55.393Z,92725.88
2022-08-25T23:32:59.654Z,92713.13
2022-08-25T23:36:11.331Z,92718.25
2022-08-25T23:39:14.397Z,92721.66
2022-08-25T23:42:17.497Z,92725.38
2022-08-25T23:45:21.347Z,92721.59
2022-08-25T23:48:25.728Z,92732.66
2022-08-25T23:51:34.065Z,92733.94
2022-08-25T23:54:40.358Z,92730.75
2022-08-25T23:57:43.537Z,92731.34
